Time;durP1;ratioP1;P1;durP2;ratioP2;P2;SDS_P1;SDS_P2;PMS_P1;PMS_P2;Temp;Humidity;BMP_temperature;BMP_pressure;BME280_temperature;BME280_humidity;BME280_pressure;Samples;Min_cycle;Max_cycle;Signal;HPM_P1;HPM_P2
2022/01/31 00:02:14;;;;;;;14.95;5.18;;;4.10;99.90;;;;;;5057904;28;20037;-63
2022/01/31 00:04:42;;;;;;;20.10;6.25;;;4.10;99.90;;;;;;5057068;28;20032;-63
2022/01/31 00:07:08;;;;;;;19.13;6.97;;;4.20;99.90;;;;;;5056649;28;20454;-64
2022/01/31 00:09:34;;;;;;;17.55;6.20;;;4.30;99.90;;;;;;5056152;28;20055;-64
2022/01/31 00:12:07;;;;;;;19.40;6.50;;;4.30;99.90;;;;;;5057858;28;20037;-64
2022/01/31 00:14:40;;;;;;;16.45;5.68;;;4.40;99.90;;;;;;5056922;28;20119;-64
2022/01/31 00:17:07;;;;;;;19.00;6.40;;;4.40;99.90;;;;;;5057103;28;20057;-65
2022/01/31 00:19:35;;;;;;;18.88;6.13;;;4.50;99.90;;;;;;5057198;28;20120;-63
2022/01/31 00:22:02;;;;;;;17.58;6.95;;;4.50;99.90;;;;;;5057473;28;20438;-64
2022/01/31 00:24:29;;;;;;;19.25;6.55;;;4.50;99.90;;;;;;5057205;28;20049;-63
2022/01/31 00:26:55;;;;;;;21.55;6.75;;;4.50;99.90;;;;;;5057331;28;20068;-64
2022/01/31 00:29:21;;;;;;;15.32;6.68;;;4.50;99.90;;;;;;5055894;28;20068;-64
2022/01/31 00:31:46;;;;;;;20.58;6.80;;;4.60;99.90;;;;;;5057388;28;20049;-64
2022/01/31 00:34:12;;;;;;;20.42;6.93;;;4.60;99.90;;;;;;5056117;28;20079;-63
2022/01/31 00:36:38;;;;;;;22.05;7.15;;;4.60;99.90;;;;;;5057508;28;20094;-64
2022/01/31 00:39:05;;;;;;;19.40;6.53;;;4.60;99.90;;;;;;5056792;28;20045;-63
2022/01/31 00:41:30;;;;;;;19.20;6.85;;;4.60;99.90;;;;;;5056406;28;20112;-63
2022/01/31 00:44:14;;;;;;;17.73;6.68;;;4.60;99.90;;;;;;5057074;28;20132;-64
2022/01/31 00:46:43;;;;;;;20.30;7.38;;;4.60;99.90;;;;;;5057411;28;20106;-63
2022/01/31 00:49:16;;;;;;;24.65;8.13;;;4.60;99.90;;;;;;5056472;28;20048;-63
2022/01/31 00:51:42;;;;;;;21.63;8.63;;;4.60;99.90;;;;;;5057384;28;20071;-64
2022/01/31 00:54:08;;;;;;;22.35;8.43;;;4.70;99.90;;;;;;5055849;28;20037;-63
2022/01/31 00:56:33;;;;;;;21.65;7.40;;;4.70;99.90;;;;;;5055808;28;20041;-62
2022/01/31 00:58:59;;;;;;;20.30;8.00;;;4.70;99.90;;;;;;5055810;28;20072;-63
2022/01/31 01:01:25;;;;;;;19.42;7.78;;;4.70;99.90;;;;;;5056683;28;20127;-63
2022/01/31 01:03:50;;;;;;;22.05;9.35;;;4.70;99.90;;;;;;5056860;28;20044;-63
2022/01/31 01:06:16;;;;;;;21.08;8.60;;;4.70;99.90;;;;;;5056404;28;20449;-63
2022/01/31 01:08:42;;;;;;;20.15;8.98;;;4.60;99.90;;;;;;5055230;28;20393;-64
2022/01/31 01:11:09;;;;;;;23.25;9.50;;;4.60;99.90;;;;;;5056251;28;20045;-63
2022/01/31 01:13:34;;;;;;;21.35;9.52;;;4.60;99.90;;;;;;5055064;28;20045;-62
2022/01/31 01:16:00;;;;;;;25.17;8.65;;;4.60;99.90;;;;;;5055942;28;20084;-62
2022/01/31 01:18:26;;;;;;;18.92;8.45;;;4.60;99.90;;;;;;5056031;28;20049;-61
2022/01/31 01:20:51;;;;;;;26.30;10.32;;;4.60;99.90;;;;;;5056171;28;20045;-62
2022/01/31 01:23:17;;;;;;;22.95;10.18;;;4.50;99.90;;;;;;5056189;28;20128;-62
2022/01/31 01:25:43;;;;;;;20.38;10.52;;;4.40;99.90;;;;;;5055297;28;20468;-61
2022/01/31 01:28:08;;;;;;;21.83;9.77;;;4.40;99.90;;;;;;5055389;28;20045;-62
2022/01/31 01:30:34;;;;;;;20.95;9.98;;;4.30;99.90;;;;;;5055733;28;20090;-61
2022/01/31 01:33:06;;;;;;;28.63;11.23;;;4.40;99.90;;;;;;5056171;28;20036;-61
2022/01/31 01:35:33;;;;;;;22.52;10.00;;;4.30;99.90;;;;;;5056201;28;20044;-62
2022/01/31 01:38:05;;;;;;;22.05;10.25;;;4.30;99.90;;;;;;5056080;28;20043;-62
2022/01/31 01:40:33;;;;;;;17.10;9.25;;;4.30;99.90;;;;;;5055355;28;20043;-61
2022/01/31 01:42:59;;;;;;;21.27;9.27;;;4.30;99.90;;;;;;5056051;28;20112;-61
2022/01/31 01:45:25;;;;;;;25.60;11.00;;;4.30;99.90;;;;;;5055959;28;20175;-61
2022/01/31 01:47:51;;;;;;;19.00;10.10;;;4.30;99.90;;;;;;5054867;28;20052;-61
2022/01/31 01:50:16;;;;;;;22.42;9.27;;;4.20;99.90;;;;;;5037700;28;20037;-61
2022/01/31 01:52:42;;;;;;;17.30;9.18;;;4.20;99.90;;;;;;5055909;28;20055;-62
2022/01/31 01:55:08;;;;;;;26.10;9.63;;;4.30;99.90;;;;;;5054554;28;20040;-62
2022/01/31 01:57:34;;;;;;;18.60;9.20;;;4.20;99.90;;;;;;5054677;28;20434;-62
2022/01/31 02:00:00;;;;;;;20.08;9.40;;;4.20;99.90;;;;;;5054931;28;20508;-61
2022/01/31 02:02:26;;;;;;;20.13;8.85;;;4.20;99.90;;;;;;5055383;28;20033;-62
2022/01/31 02:04:51;;;;;;;15.55;8.52;;;4.20;99.90;;;;;;5055450;28;20446;-62
2022/01/31 02:07:19;;;;;;;17.70;9.18;;;4.20;99.90;;;;;;5054405;28;20045;-62
2022/01/31 02:09:52;;;;;;;21.48;8.25;;;4.20;99.90;;;;;;5054579;28;20034;-61
2022/01/31 02:12:18;;;;;;;18.73;7.40;;;4.20;99.90;;;;;;5055222;28;20067;-62
2022/01/31 02:14:43;;;;;;;14.85;8.23;;;4.20;99.90;;;;;;5055060;28;20116;-62
2022/01/31 02:17:09;;;;;;;17.48;8.05;;;4.20;99.90;;;;;;5053815;28;20053;-61
2022/01/31 02:19:35;;;;;;;15.43;7.78;;;4.20;99.90;;;;;;5054279;28;20079;-61
2022/01/31 02:22:00;;;;;;;20.52;7.78;;;4.20;99.90;;;;;;5053707;28;20045;-61
2022/01/31 02:24:26;;;;;;;15.77;8.10;;;4.20;99.90;;;;;;5054901;28;20060;-61
2022/01/31 02:26:52;;;;;;;14.63;6.97;;;4.20;99.90;;;;;;5055148;28;20036;-62
2022/01/31 02:29:17;;;;;;;15.57;6.93;;;4.20;99.90;;;;;;5054540;28;20051;-61
2022/01/31 02:31:47;;;;;;;15.10;6.65;;;4.20;99.90;;;;;;5054801;28;20040;-61
2022/01/31 02:34:14;;;;;;;12.45;5.85;;;4.30;99.90;;;;;;5054849;28;20488;-62
2022/01/31 02:36:40;;;;;;;13.07;6.22;;;4.30;99.90;;;;;;5055117;28;20049;-61
2022/01/31 02:39:07;;;;;;;14.07;6.43;;;4.40;99.90;;;;;;5053265;28;20044;-61
2022/01/31 02:41:40;;;;;;;15.65;5.90;;;4.40;99.90;;;;;;5054955;28;20191;-62
2022/01/31 02:44:13;;;;;;;11.88;5.80;;;4.40;99.90;;;;;;5054062;28;20099;-61
2022/01/31 02:46:52;;;;;;;11.60;5.28;;;4.40;99.90;;;;;;5054685;28;20086;-62
2022/01/31 02:49:21;;;;;;;12.00;5.50;;;4.40;99.90;;;;;;5037418;28;20458;-63
2022/01/31 02:51:56;;;;;;;10.80;4.72;;;4.40;99.90;;;;;;5054302;28;20095;-62
2022/01/31 02:54:23;;;;;;;10.13;6.03;;;4.40;99.90;;;;;;5054580;28;20036;-62
2022/01/31 02:56:48;;;;;;;10.60;4.97;;;4.40;99.90;;;;;;5054604;28;20033;-63
2022/01/31 02:59:14;;;;;;;10.23;6.05;;;4.50;99.90;;;;;;5053764;28;20148;-63
2022/01/31 03:01:40;;;;;;;12.65;5.55;;;4.50;99.90;;;;;;5054501;28;20033;-62
2022/01/31 03:04:07;;;;;;;9.38;5.40;;;4.60;99.90;;;;;;5054241;28;20040;-63
2022/01/31 03:06:33;;;;;;;12.35;6.07;;;4.70;99.90;;;;;;5054266;28;20108;-63
2022/01/31 03:08:58;;;;;;;12.15;6.35;;;4.70;99.90;;;;;;5053713;28;20167;-64
2022/01/31 03:11:24;;;;;;;12.73;6.43;;;4.80;99.90;;;;;;5054220;28;20072;-63
2022/01/31 03:13:50;;;;;;;10.25;6.07;;;4.90;99.90;;;;;;5054330;28;20041;-61
2022/01/31 03:16:15;;;;;;;12.65;6.88;;;5.00;99.90;;;;;;5053527;28;20055;-62
2022/01/31 03:18:41;;;;;;;20.70;7.50;;;5.00;99.90;;;;;;5053866;28;20060;-63
2022/01/31 03:21:07;;;;;;;17.75;7.40;;;5.00;99.90;;;;;;5053895;28;20037;-62
2022/01/31 03:23:34;;;;;;;16.70;7.15;;;5.00;99.90;;;;;;5054065;28;20347;-62
2022/01/31 03:25:59;;;;;;;26.00;7.25;;;5.10;99.90;;;;;;5054250;28;20351;-62
2022/01/31 03:28:25;;;;;;;22.20;5.55;;;5.30;99.90;;;;;;5053835;28;20098;-62
2022/01/31 03:30:51;;;;;;;12.48;3.20;;;5.30;99.90;;;;;;5053392;28;20048;-62
2022/01/31 03:33:17;;;;;;;17.40;4.57;;;5.40;99.90;;;;;;5052767;28;20037;-63
2022/01/31 03:35:43;;;;;;;16.15;3.70;;;5.40;99.90;;;;;;5054157;28;20044;-63
2022/01/31 03:38:08;;;;;;;16.13;4.03;;;5.60;99.90;;;;;;5053581;28;20037;-64
2022/01/31 03:40:34;;;;;;;17.23;4.40;;;5.70;99.90;;;;;;5053830;28;20037;-63
2022/01/31 03:43:00;;;;;;;14.13;3.70;;;5.70;99.90;;;;;;5053857;28;20323;-63
2022/01/31 03:45:27;;;;;;;18.20;4.15;;;5.80;99.90;;;;;;5052928;28;20472;-63
2022/01/31 03:47:52;;;;;;;20.10;4.25;;;5.80;99.90;;;;;;5053264;28;20425;-63
2022/01/31 03:50:19;;;;;;;30.08;5.45;;;5.80;99.90;;;;;;5052042;28;20041;-63
2022/01/31 03:52:45;;;;;;;22.30;4.60;;;5.90;99.90;;;;;;5053730;28;20112;-62
2022/01/31 03:55:12;;;;;;;21.40;4.25;;;5.90;99.90;;;;;;5053855;28;20065;-63
2022/01/31 03:57:38;;;;;;;22.35;4.20;;;6.00;99.90;;;;;;5053330;28;20033;-63
2022/01/31 04:00:10;;;;;;;18.58;4.03;;;6.00;99.90;;;;;;5053001;28;20116;-63
2022/01/31 04:02:36;;;;;;;23.00;4.72;;;6.00;99.90;;;;;;5053428;28;20033;-62
2022/01/31 04:05:02;;;;;;;22.05;4.93;;;6.00;99.90;;;;;;5053673;28;20469;-62
2022/01/31 04:07:28;;;;;;;17.70;3.85;;;6.00;99.90;;;;;;5052337;28;20045;-62
2022/01/31 04:09:53;;;;;;;21.55;4.35;;;6.10;99.90;;;;;;5052970;28;20040;-63
2022/01/31 04:12:19;;;;;;;17.13;3.60;;;6.00;99.90;;;;;;5052502;28;20558;-63
2022/01/31 04:14:45;;;;;;;20.42;3.55;;;6.00;99.90;;;;;;5050165;28;20037;-63
2022/01/31 04:17:11;;;;;;;21.48;4.32;;;6.00;99.90;;;;;;5049659;28;20041;-63
2022/01/31 04:19:38;;;;;;;22.67;4.15;;;6.00;99.90;;;;;;5051895;28;20052;-62
2022/01/31 04:22:08;;;;;;;15.50;3.45;;;6.00;99.90;;;;;;5052066;28;20049;-63
2022/01/31 04:24:35;;;;;;;24.05;3.85;;;5.90;99.90;;;;;;5052958;28;20480;-63
2022/01/31 04:27:05;;;;;;;14.73;3.00;;;5.80;99.90;;;;;;5050339;28;20350;-63
2022/01/31 04:29:37;;;;;;;18.25;3.80;;;6.00;99.90;;;;;;5051186;28;20033;-63
2022/01/31 04:32:04;;;;;;;15.00;2.63;;;5.90;99.90;;;;;;5050198;28;20044;-63
2022/01/31 04:34:31;;;;;;;11.88;2.50;;;5.80;99.90;;;;;;5053005;28;20040;-64
2022/01/31 04:36:58;;;;;;;11.10;1.98;;;5.70;99.90;;;;;;5053258;28;20045;-63
2022/01/31 04:39:24;;;;;;;11.50;2.42;;;5.60;99.90;;;;;;5052593;28;20037;-63
2022/01/31 04:41:50;;;;;;;15.07;3.05;;;5.60;99.90;;;;;;5053146;28;20037;-64
2022/01/31 04:44:17;;;;;;;12.52;3.58;;;5.50;99.90;;;;;;5055019;28;20087;-63
2022/01/31 04:46:45;;;;;;;16.10;2.97;;;5.50;99.90;;;;;;5056023;28;20033;-63
2022/01/31 04:49:11;;;;;;;14.55;3.22;;;5.50;99.90;;;;;;5056378;28;20374;-63
2022/01/31 04:51:37;;;;;;;18.35;3.28;;;5.50;99.90;;;;;;5056826;28;20052;-63
2022/01/31 04:54:03;;;;;;;19.10;3.92;;;5.40;99.90;;;;;;5056612;28;20041;-64
2022/01/31 04:56:28;;;;;;;22.30;4.07;;;5.40;99.90;;;;;;5056592;28;20088;-63
2022/01/31 04:58:54;;;;;;;15.82;3.50;;;5.40;99.90;;;;;;5056124;28;20120;-64
2022/01/31 05:01:20;;;;;;;27.00;4.25;;;5.40;99.90;;;;;;5055274;28;20063;-63
2022/01/31 05:03:46;;;;;;;18.90;3.70;;;5.50;99.90;;;;;;5056660;28;20060;-63
2022/01/31 05:06:15;;;;;;;19.60;3.55;;;5.50;99.90;;;;;;5056734;28;20367;-64
2022/01/31 05:08:41;;;;;;;19.17;3.72;;;5.60;99.90;;;;;;5055113;28;20378;-63
2022/01/31 05:11:11;;;;;;;26.33;4.72;;;5.60;99.90;;;;;;5056100;28;20045;-63
2022/01/31 05:13:37;;;;;;;18.58;3.90;;;5.60;99.90;;;;;;5056346;28;20041;-63
2022/01/31 05:16:04;;;;;;;20.75;4.32;;;5.70;99.90;;;;;;5055991;28;20598;-64
2022/01/31 05:18:30;;;;;;;16.15;3.03;;;5.70;99.90;;;;;;5054967;28;20370;-63
2022/01/31 05:20:55;;;;;;;13.43;2.65;;;5.50;99.90;;;;;;5054749;28;20037;-64
2022/01/31 05:23:21;;;;;;;10.27;2.30;;;5.40;99.90;;;;;;5056045;28;20067;-63
2022/01/31 05:25:46;;;;;;;7.70;1.88;;;5.20;99.90;;;;;;5055164;28;20064;-62
2022/01/31 05:28:12;;;;;;;10.25;1.90;;;5.10;99.90;;;;;;5056100;28;20045;-63
2022/01/31 05:30:38;;;;;;;10.23;1.52;;;4.90;99.90;;;;;;5055970;28;20048;-62
2022/01/31 05:33:03;;;;;;;9.63;1.75;;;4.80;99.90;;;;;;5055634;28;20527;-63
2022/01/31 05:35:29;;;;;;;12.25;3.42;;;4.80;99.90;;;;;;5055995;28;20036;-62
2022/01/31 05:37:55;;;;;;;11.40;2.53;;;4.80;99.90;;;;;;5055707;28;20447;-62
2022/01/31 05:40:22;;;;;;;11.50;2.10;;;4.70;99.90;;;;;;5054597;28;20041;-62
2022/01/31 05:42:47;;;;;;;16.20;2.90;;;4.80;99.90;;;;;;5055792;28;20052;-63
2022/01/31 05:45:13;;;;;;;13.75;2.88;;;4.80;99.90;;;;;;5056033;28;20099;-63
2022/01/31 05:47:39;;;;;;;16.25;2.67;;;4.80;99.90;;;;;;5055783;28;20450;-63
2022/01/31 05:50:06;;;;;;;13.45;2.45;;;4.80;99.90;;;;;;5054704;28;20077;-62
2022/01/31 05:52:32;;;;;;;16.77;3.10;;;4.90;99.90;;;;;;5054156;28;20094;-62
2022/01/31 05:54:58;;;;;;;14.15;2.75;;;4.90;99.90;;;;;;5049080;28;20506;-63
2022/01/31 05:57:24;;;;;;;15.93;2.72;;;4.90;99.90;;;;;;5055227;28;20029;-64
2022/01/31 05:59:50;;;;;;;18.33;3.30;;;5.00;99.90;;;;;;5054528;28;20343;-63
2022/01/31 06:02:17;;;;;;;20.33;2.95;;;5.00;99.90;;;;;;5052711;28;20083;-62
2022/01/31 06:04:44;;;;;;;19.17;3.70;;;5.10;99.90;;;;;;5047980;28;20037;-63
2022/01/31 06:07:09;;;;;;;16.73;3.25;;;5.20;99.90;;;;;;5049836;28;20096;-62
2022/01/31 06:09:36;;;;;;;25.55;3.45;;;5.20;99.90;;;;;;5049122;28;20532;-63
2022/01/31 06:12:03;;;;;;;19.45;3.67;;;5.20;99.90;;;;;;5054233;28;20106;-63
2022/01/31 06:14:30;;;;;;;20.23;4.10;;;5.20;99.90;;;;;;5054674;28;20458;-63
2022/01/31 06:16:56;;;;;;;20.13;3.80;;;5.30;99.90;;;;;;5054669;28;20092;-63
2022/01/31 06:19:21;;;;;;;15.43;3.58;;;5.20;99.90;;;;;;5054038;28;20154;-63
2022/01/31 06:21:47;;;;;;;24.90;4.15;;;5.30;99.90;;;;;;5054013;28;20041;-63
2022/01/31 06:24:15;;;;;;;20.88;3.55;;;5.30;99.90;;;;;;5055239;28;20037;-63
2022/01/31 06:26:41;;;;;;;13.75;3.00;;;5.40;99.90;;;;;;5054129;28;20343;-62
2022/01/31 06:29:07;;;;;;;14.30;2.50;;;5.40;99.90;;;;;;5053560;28;20055;-62
2022/01/31 06:31:33;;;;;;;11.98;2.42;;;5.40;99.90;;;;;;5054428;28;20040;-63
2022/01/31 06:34:00;;;;;;;10.88;2.50;;;5.40;99.90;;;;;;5054570;28;20067;-63
2022/01/31 06:36:26;;;;;;;10.85;2.75;;;5.30;99.90;;;;;;5054780;28;20339;-63
2022/01/31 06:38:52;;;;;;;9.35;1.85;;;5.30;99.90;;;;;;5054402;28;20052;-62
2022/01/31 06:41:19;;;;;;;11.30;2.20;;;5.20;99.90;;;;;;5054508;28;20067;-62
2022/01/31 06:43:45;;;;;;;10.55;2.10;;;5.20;99.90;;;;;;5052978;28;20438;-63
2022/01/31 06:46:12;;;;;;;12.82;2.30;;;5.10;99.90;;;;;;5040244;28;20047;-62
2022/01/31 06:48:37;;;;;;;11.93;2.35;;;5.00;99.90;;;;;;5034288;28;20042;-62
2022/01/31 06:51:03;;;;;;;16.20;2.80;;;5.10;99.90;;;;;;5040731;28;20040;-64
2022/01/31 06:53:29;;;;;;;12.43;2.53;;;5.00;99.90;;;;;;5039931;28;20474;-64
2022/01/31 06:55:58;;;;;;;14.43;2.78;;;5.10;99.90;;;;;;5034669;28;20359;-65
2022/01/31 06:58:24;;;;;;;14.70;2.70;;;5.10;99.90;;;;;;5033849;28;20037;-65
2022/01/31 07:00:51;;;;;;;18.58;3.53;;;5.10;99.90;;;;;;5046956;28;20044;-63
2022/01/31 07:03:17;;;;;;;14.32;2.67;;;5.10;99.90;;;;;;5052771;28;20041;-63
2022/01/31 07:05:44;;;;;;;15.98;3.13;;;5.10;99.90;;;;;;5045092;28;20029;-63
2022/01/31 07:08:11;;;;;;;12.00;2.47;;;5.10;99.90;;;;;;5037920;28;20467;-63
2022/01/31 07:10:38;;;;;;;14.32;3.28;;;5.10;99.90;;;;;;5035104;28;20566;-62
2022/01/31 07:13:13;;;;;;;13.93;2.85;;;5.10;99.90;;;;;;5035449;28;20415;-62
2022/01/31 07:15:39;;;;;;;14.35;2.65;;;5.20;99.90;;;;;;5041570;28;20052;-61
2022/01/31 07:18:06;;;;;;;14.27;3.13;;;5.20;99.90;;;;;;5033896;28;20056;-65
2022/01/31 07:20:40;;;;;;;20.60;3.25;;;5.20;99.90;;;;;;5044947;28;20390;-61
2022/01/31 07:23:13;;;;;;;18.77;3.22;;;5.10;99.90;;;;;;5051559;28;22002;-61
2022/01/31 07:25:39;;;;;;;19.83;3.58;;;5.20;99.90;;;;;;5052861;28;20168;-61
2022/01/31 07:28:12;;;;;;;21.77;3.60;;;5.20;99.90;;;;;;5053895;28;20117;-62
2022/01/31 07:30:40;;;;;;;16.00;3.33;;;5.20;99.90;;;;;;5053417;28;20048;-61
2022/01/31 07:33:12;;;;;;;16.05;3.38;;;5.20;99.90;;;;;;5053377;28;20421;-61
2022/01/31 07:35:38;;;;;;;14.35;3.05;;;5.20;99.90;;;;;;5054121;28;20045;-62
2022/01/31 07:38:04;;;;;;;18.17;3.72;;;5.20;99.90;;;;;;5053400;28;20393;-61
2022/01/31 07:40:30;;;;;;;18.92;3.70;;;5.30;99.90;;;;;;5053308;28;20040;-61
2022/01/31 07:42:55;;;;;;;14.07;3.63;;;5.30;99.90;;;;;;5052645;28;20358;-63
2022/01/31 07:45:21;;;;;;;19.13;3.25;;;5.30;99.90;;;;;;5051842;28;20107;-63
2022/01/31 07:47:47;;;;;;;16.70;3.38;;;5.30;99.90;;;;;;5052423;28;20510;-63
2022/01/31 07:50:13;;;;;;;14.35;3.17;;;5.40;99.90;;;;;;5042057;28;20056;-60
2022/01/31 07:52:39;;;;;;;13.10;3.00;;;5.30;99.90;;;;;;5033986;28;20055;-62
2022/01/31 07:55:05;;;;;;;13.95;2.72;;;5.40;99.90;;;;;;5033684;28;20069;-61
2022/01/31 07:57:31;;;;;;;8.52;2.22;;;5.30;99.90;;;;;;5038875;28;20099;-61
2022/01/31 07:59:57;;;;;;;14.85;2.80;;;5.30;99.90;;;;;;5052551;28;20033;-63
2022/01/31 08:02:22;;;;;;;15.50;3.47;;;5.40;99.90;;;;;;5053424;28;20040;-63
2022/01/31 08:04:48;;;;;;;15.50;2.70;;;5.40;99.90;;;;;;5053608;28;20033;-63
2022/01/31 08:07:16;;;;;;;11.60;2.28;;;5.40;99.90;;;;;;5053508;28;20080;-63
2022/01/31 08:09:42;;;;;;;10.20;2.58;;;5.40;99.90;;;;;;5035621;28;20059;-63
2022/01/31 08:12:08;;;;;;;11.48;2.58;;;5.50;99.90;;;;;;5052280;28;20048;-62
2022/01/31 08:14:33;;;;;;;16.75;3.55;;;5.50;99.90;;;;;;5052498;28;20064;-63
2022/01/31 08:16:59;;;;;;;17.25;3.72;;;5.50;99.90;;;;;;5052850;28;20076;-63
2022/01/31 08:19:26;;;;;;;22.85;4.53;;;5.50;99.90;;;;;;5055464;28;20098;-63
2022/01/31 08:21:54;;;;;;;23.00;5.13;;;5.60;99.90;;;;;;5057371;28;20167;-62
2022/01/31 08:24:21;;;;;;;25.05;4.82;;;5.60;99.90;;;;;;5047973;28;20794;-64
2022/01/31 08:26:48;;;;;;;24.65;4.90;;;5.70;99.90;;;;;;5039025;28;20084;-64
2022/01/31 08:29:22;;;;;;;31.20;5.35;;;5.70;99.90;;;;;;5035891;28;20403;-63
2022/01/31 08:31:52;;;;;;;31.17;6.45;;;5.70;99.90;;;;;;5043664;28;20433;-63
2022/01/31 08:34:23;;;;;;;29.05;5.15;;;5.80;99.90;;;;;;5056890;28;20390;-63
2022/01/31 08:36:49;;;;;;;35.35;5.93;;;5.80;99.90;;;;;;5057305;28;20080;-62
2022/01/31 08:39:18;;;;;;;24.67;5.35;;;5.80;99.90;;;;;;5056493;28;20602;-62
2022/01/31 08:41:47;;;;;;;22.50;5.43;;;5.90;99.90;;;;;;5056312;28;20100;-63
2022/01/31 08:44:16;;;;;;;25.45;4.53;;;5.80;99.90;;;;;;5055889;28;20033;-62
2022/01/31 08:46:42;;;;;;;23.25;4.57;;;5.80;99.90;;;;;;5056715;28;20052;-63
2022/01/31 08:49:09;;;;;;;25.15;4.07;;;5.80;99.90;;;;;;5056284;28;20045;-62
2022/01/31 08:51:35;;;;;;;28.10;4.38;;;5.80;99.90;;;;;;5056420;28;20116;-63
2022/01/31 08:54:04;;;;;;;21.08;3.50;;;5.80;99.90;;;;;;5056469;28;20060;-63
2022/01/31 08:56:29;;;;;;;18.13;3.22;;;5.80;99.90;;;;;;5055479;28;20072;-63
2022/01/31 08:58:56;;;;;;;12.93;2.72;;;5.70;99.90;;;;;;5055177;28;20143;-62
2022/01/31 09:01:23;;;;;;;15.63;2.72;;;5.80;99.90;;;;;;5055798;28;20041;-61
2022/01/31 09:06:25;;;;;;;13.35;2.25;;;5.80;99.90;;;;;;5056549;28;20073;-61
2022/01/31 09:08:51;;;;;;;9.25;2.20;;;6.00;99.90;;;;;;5056188;28;20072;-61
2022/01/31 09:11:17;;;;;;;12.70;3.08;;;6.00;99.90;;;;;;5055518;28;20037;-61
2022/01/31 09:13:43;;;;;;;13.70;2.05;;;6.00;99.90;;;;;;5056437;28;20059;-62
2022/01/31 09:16:09;;;;;;;12.82;3.38;;;6.10;99.90;;;;;;5056089;28;20425;-62
2022/01/31 09:18:35;;;;;;;9.32;2.00;;;6.10;99.90;;;;;;5056315;28;20041;-63
2022/01/31 09:21:02;;;;;;;12.10;2.42;;;6.20;99.90;;;;;;5055825;28;20037;-62
2022/01/31 09:23:28;;;;;;;13.98;2.90;;;6.20;99.90;;;;;;5056082;28;20094;-63
2022/01/31 09:25:55;;;;;;;13.88;2.60;;;6.30;99.90;;;;;;5039259;28;20033;-62
2022/01/31 09:28:20;;;;;;;13.98;2.60;;;6.30;99.90;;;;;;5036176;28;20049;-62
2022/01/31 09:30:47;;;;;;;8.20;1.95;;;6.40;99.90;;;;;;5046681;28;20047;-62
2022/01/31 09:33:14;;;;;;;9.73;2.00;;;6.40;99.90;;;;;;5056085;28;20037;-63
2022/01/31 09:35:40;;;;;;;9.68;2.08;;;6.40;99.90;;;;;;5055996;28;20068;-62
2022/01/31 09:38:06;;;;;;;10.27;1.90;;;6.40;99.90;;;;;;5055750;28;20458;-62
2022/01/31 09:40:33;;;;;;;7.20;1.67;;;6.40;99.90;;;;;;5037429;28;20135;-62
2022/01/31 09:43:11;;;;;;;15.50;2.50;;;6.50;99.90;;;;;;5056035;28;20080;-65
2022/01/31 09:45:55;;;;;;;13.00;3.15;;;6.50;99.90;;;;;;5037900;28;20068;-63
2022/01/31 09:51:01;;;;;;;11.88;2.20;;;6.60;99.90;;;;;;5048561;28;20110;-63
2022/01/31 09:53:29;;;;;;;8.43;1.80;;;6.70;99.90;;;;;;5055621;28;20052;-63
2022/01/31 09:55:55;;;;;;;14.13;2.83;;;6.70;99.90;;;;;;5055359;28;20102;-64
2022/01/31 09:58:21;;;;;;;16.08;3.30;;;6.70;99.90;;;;;;5054332;28;20037;-63
2022/01/31 10:01:00;;;;;;;10.45;2.20;;;6.80;99.90;;;;;;5051911;28;20412;-63
2022/01/31 10:03:26;;;;;;;7.40;2.30;;;6.80;99.90;;;;;;5055430;28;20068;-63
2022/01/31 10:05:53;;;;;;;8.63;1.75;;;6.80;99.90;;;;;;5054208;28;20442;-64
2022/01/31 10:08:19;;;;;;;9.93;2.35;;;6.80;99.90;;;;;;5055460;28;20044;-64
2022/01/31 10:10:47;;;;;;;9.77;2.50;;;6.80;99.90;;;;;;5054330;28;20040;-63
2022/01/31 10:16:26;;;;;;;15.88;2.67;;;6.90;99.90;;;;;;5053811;28;20057;-64
2022/01/31 10:18:59;;;;;;;;;;;6.90;99.90;;;;;;5055575;28;20041;-62
2022/01/31 10:21:25;;;;;;;17.40;2.80;;;6.80;99.90;;;;;;5053447;28;19927;-63
2022/01/31 10:23:50;;;;;;;19.75;3.05;;;6.80;99.90;;;;;;5054955;28;20037;-63
2022/01/31 10:26:33;;;;;;;14.88;2.85;;;6.80;99.90;;;;;;5053940;28;20025;-62
2022/01/31 10:29:10;;;;;;;11.43;2.50;;;6.80;99.90;;;;;;5054615;28;20353;-62
2022/01/31 10:31:36;;;;;;;11.05;2.30;;;6.80;99.90;;;;;;5054422;28;20051;-63
2022/01/31 10:34:19;;;;;;;10.65;2.03;;;6.80;99.90;;;;;;5053968;28;20131;-63
2022/01/31 10:36:45;;;;;;;14.10;2.72;;;6.90;99.90;;;;;;5054880;28;20052;-63
2022/01/31 10:43:22;;;;;;;13.02;2.28;;;6.80;99.90;;;;;;5054243;28;20045;-64
2022/01/31 10:45:22;;;;;;;7.93;1.60;;;6.70;99.90;;;;;;5034360;28;20046;-63
2022/01/31 10:53:06;;;;;;;9.20;1.60;;;6.60;99.90;;;;;;5054672;28;20390;-64
2022/01/31 10:55:31;;;;;;;7.47;1.90;;;6.50;99.90;;;;;;5053367;28;20072;-64
2022/01/31 10:58:12;;;;;;;8.07;1.80;;;6.40;99.90;;;;;;5053327;28;20454;-63
2022/01/31 11:00:40;;;;;;;6.43;1.58;;;6.30;99.90;;;;;;5053847;28;20079;-63
2022/01/31 11:03:33;;;;;;;8.52;1.90;;;6.30;99.90;;;;;;5054165;28;20045;-62
2022/01/31 11:06:05;;;;;;;10.77;1.80;;;6.30;99.90;;;;;;5053317;28;20041;-62
2022/01/31 11:08:31;;;;;;;7.40;2.13;;;6.30;99.90;;;;;;5053956;28;20741;-62
2022/01/31 11:10:58;;;;;;;8.38;1.20;;;6.30;99.90;;;;;;5053579;28;20036;-63
2022/01/31 11:13:25;;;;;;;6.47;1.35;;;6.40;99.90;;;;;;5054113;28;20056;-62
2022/01/31 11:15:54;;;;;;;5.72;1.25;;;6.30;99.90;;;;;;5053478;28;20083;-63
2022/01/31 11:18:22;;;;;;;7.38;1.70;;;6.20;99.90;;;;;;5053696;28;20056;-62
2022/01/31 11:20:56;;;;;;;5.40;1.10;;;6.20;99.90;;;;;;5053328;28;20135;-62
2022/01/31 11:23:25;;;;;;;5.97;1.35;;;6.20;99.90;;;;;;5053784;28;20076;-62
2022/01/31 11:25:55;;;;;;;8.52;1.67;;;6.20;99.90;;;;;;5052619;28;20045;-63
2022/01/31 11:28:22;;;;;;;5.43;1.20;;;6.20;99.90;;;;;;5053907;28;20051;-62
2022/01/31 11:30:48;;;;;;;6.00;1.60;;;6.20;99.90;;;;;;5053135;28;20049;-62
2022/01/31 11:33:17;;;;;;;7.20;1.33;;;6.20;99.90;;;;;;5053744;28;20045;-63
2022/01/31 11:35:42;;;;;;;9.07;1.60;;;6.10;99.90;;;;;;5053899;28;20049;-63
2022/01/31 11:38:08;;;;;;;5.05;1.13;;;6.10;99.90;;;;;;5054171;28;20051;-62
2022/01/31 11:40:34;;;;;;;7.78;1.27;;;6.20;99.90;;;;;;5052635;28;20347;-62
2022/01/31 11:43:03;;;;;;;7.90;1.45;;;6.20;99.90;;;;;;5052607;28;20481;-61
2022/01/31 11:45:35;;;;;;;4.07;1.10;;;6.20;99.90;;;;;;5053369;28;20047;-63
2022/01/31 11:48:09;;;;;;;5.32;1.40;;;6.20;99.90;;;;;;5053354;28;20033;-63
2022/01/31 11:50:43;;;;;;;14.43;2.00;;;6.20;99.90;;;;;;5047419;28;20098;-63
2022/01/31 11:53:09;;;;;;;10.85;2.25;;;6.20;99.90;;;;;;5049127;28;20041;-62
2022/01/31 11:55:41;;;;;;;12.52;2.20;;;6.20;99.90;;;;;;5032903;28;20431;-63
2022/01/31 11:58:09;;;;;;;15.98;3.00;;;6.30;99.90;;;;;;5032915;28;20095;-63
2022/01/31 12:00:40;;;;;;;18.15;3.10;;;6.30;99.90;;;;;;5035252;28;20049;-63
2022/01/31 12:03:09;;;;;;;20.35;3.88;;;6.40;99.90;;;;;;5035917;28;20112;-62
2022/01/31 12:05:36;;;;;;;21.23;3.80;;;6.40;99.90;;;;;;5038366;28;20033;-63
2022/01/31 12:08:21;;;;;;;33.88;4.90;;;6.50;99.90;;;;;;5033000;28;20041;-62
2022/01/31 12:11:09;;;;;;;29.70;5.20;;;6.60;99.90;;;;;;5035211;28;20038;-62
2022/01/31 12:13:40;;;;;;;32.05;5.38;;;6.60;99.90;;;;;;5033045;28;20053;-63
2022/01/31 12:18:59;;;;;;;27.02;6.03;;;6.70;99.90;;;;;;5052797;28;20080;-64
2022/01/31 12:24:44;;;;;;;25.73;4.87;;;6.80;99.90;;;;;;5052183;28;20351;-64
2022/01/31 12:27:14;;;;;;;29.17;4.97;;;6.90;99.90;;;;;;5047640;28;20033;-63
2022/01/31 12:29:51;;;;;;;28.55;4.90;;;6.90;99.90;;;;;;5052268;28;20064;-64
2022/01/31 12:32:23;;;;;;;26.50;4.78;;;7.00;99.90;;;;;;5051858;28;20364;-63
2022/01/31 12:34:56;;;;;;;27.05;4.78;;;7.00;99.90;;;;;;5052789;28;20490;-63
2022/01/31 12:37:34;;;;;;;20.45;4.00;;;7.00;99.90;;;;;;5053293;28;20044;-63
2022/01/31 12:40:05;;;;;;;23.35;4.72;;;7.00;99.90;;;;;;5052570;28;20037;-64
2022/01/31 12:42:47;;;;;;;22.08;3.95;;;7.10;99.90;;;;;;5053112;28;20362;-63
2022/01/31 12:45:16;;;;;;;19.55;3.72;;;7.10;99.90;;;;;;5053040;28;20366;-62
2022/01/31 12:48:10;;;;;;;21.58;4.05;;;7.30;99.90;;;;;;5052968;28;20055;-63
2022/01/31 12:50:41;;;;;;;15.43;3.35;;;7.40;99.90;;;;;;5051536;28;20041;-64
2022/01/31 12:53:28;;;;;;;15.63;3.30;;;7.40;99.90;;;;;;5053098;28;20097;-63
2022/01/31 12:56:21;;;;;;;16.02;3.35;;;7.40;99.90;;;;;;5052773;28;20041;-65
2022/01/31 12:58:49;;;;;;;16.08;2.95;;;7.50;99.90;;;;;;5052736;28;20040;-63
2022/01/31 13:01:16;;;;;;;19.20;3.53;;;7.50;99.90;;;;;;5052762;28;20109;-63
2022/01/31 13:03:46;;;;;;;15.43;3.08;;;7.50;99.90;;;;;;5053305;28;20025;-64
2022/01/31 13:06:30;;;;;;;14.38;2.83;;;7.60;99.90;;;;;;5056701;28;20357;-63
2022/01/31 13:08:58;;;;;;;14.57;3.20;;;7.60;99.90;;;;;;5056368;28;20040;-64
2022/01/31 13:11:26;;;;;;;14.05;3.20;;;7.60;99.90;;;;;;5056305;28;20040;-64
2022/01/31 13:14:00;;;;;;;17.73;2.45;;;7.60;99.90;;;;;;5055162;28;20048;-63
2022/01/31 13:16:35;;;;;;;18.52;3.30;;;7.70;99.90;;;;;;5056023;28;20053;-64